Data for 09/14/2017

Time Sea-Level Adjusted Pressure Absolute Pressure Temperature Relative Humidity Dew Point   
(mb) (inHg) (mb) (inHg) (C) (F) (%) (C) (F)
00:05 1014 29.94 843 24.89 13.7 56.7 68 8.1 46.6
00:10 1014 29.94 843 24.89 13.5 56.4 68 7.8 46.1
00:15 1014 29.94 843 24.89 13.6 56.5 69 8.2 46.7
00:20 1014 29.94 843 24.89 13.9 56.9 71 8.7 47.6
00:25 1014 29.94 843 24.89 14.2 57.6 72 9.3 48.8
00:30 1014 29.94 844 24.92 14.1 57.4 74 9.5 49.1
00:35 1014 29.94 844 24.92 14 57.2 75 9.6 49.2
00:40 1015 29.97 844 24.92 13.9 57 76 9.7 49.5
00:45 1015 29.97 844 24.92 13.7 56.7 77 9.7 49.5
00:50 1015 29.97 844 24.92 13.6 56.5 77 9.7 49.5
00:55 1015 29.97 844 24.92 13.6 56.4 76 9.3 48.8
01:00 1015 29.97 844 24.92 13.6 56.5 76 9.5 49
01:05 1015 29.97 844 24.92 13.7 56.7 75 9.4 49
01:10 1015 29.97 844 24.92 13.5 56.2 73 8.7 47.7
01:15 1015 29.97 844 24.92 13.2 55.7 73 8.5 47.4
01:20 1015 29.97 844 24.92 13 55.3 72 8.2 46.7
01:25 1015 29.97 844 24.92 12.7 54.9 73 8 46.5
01:30 1015 29.97 844 24.92 12.6 54.7 72 7.8 46
01:35 1015 29.97 844 24.92 12.4 54.2 73 7.7 45.9
01:40 1015 29.97 844 24.92 12.3 54.1 73 7.6 45.7
01:45 1015 29.97 844 24.92 12.3 54.2 73 7.6 45.7
01:50 1015 29.97 844 24.92 12.3 54.2 70 7.1 44.9
01:55 1015 29.97 845 24.95 12.3 54.1 70 7 44.6
02:00 1015 29.97 845 24.95 12 53.6 68 6.3 43.3
02:05 1015 29.97 845 24.95 11.6 52.8 69 6 42.9
02:10 1015 29.97 845 24.95 11.3 52.3 68 5.6 42.1
02:15 1015 29.97 845 24.95 11.1 52 68 5.5 41.9
02:20 1015 29.97 845 24.95 11.1 52 68 5.4 41.7
02:25 1015 29.97 845 24.95 11.2 52.2 67 5.4 41.8
02:30 1015 29.97 845 24.95 11.3 52.4 70 6 42.8
02:35 1015 29.97 845 24.95 11.3 52.4 71 6.2 43.2
02:40 1015 29.97 845 24.95 11.3 52.3 70 6.1 43
02:45 1015 29.97 845 24.95 11.3 52.4 69 6 42.8
02:50 1016 30 845 24.95 11.3 52.4 67 5.4 41.8
02:55 1016 30 845 24.95 11.3 52.4 67 5.5 41.9
03:00 1016 30 845 24.95 11.3 52.3 67 5.3 41.5
03:05 1016 30 845 24.95 11.2 52.1 67 5.3 41.5
03:10 1016 30 845 24.95 11.2 52.1 66 5 41.1
03:15 1016 30 845 24.95 11.2 52.2 65 5 41
03:20 1016 30 845 24.95 11.3 52.3 65 5 41
03:25 1016 30 845 24.95 11.3 52.4 65 5.1 41.2
03:30 1016 30 845 24.95 11.4 52.4 67 5.5 41.9
03:35 1016 30 845 24.95 11.3 52.4 66 5.2 41.4
03:40 1016 30 845 24.95 11.4 52.4 66 5.3 41.5
03:45 1015 29.97 845 24.95 11.4 52.5 65 5.2 41.3
03:50 1015 29.97 845 24.95 11.4 52.5 67 5.4 41.8
03:55 1015 29.97 845 24.95 11.3 52.4 67 5.5 41.9
04:00 1015 29.97 845 24.95 11.3 52.4 68 5.6 42.1
04:05 1015 29.97 845 24.95 11.2 52.2 69 5.7 42.2
04:10 1015 29.97 845 24.95 11.2 52.2 68 5.6 42.1
04:15 1015 29.97 845 24.95 11.2 52.2 68 5.5 41.8
04:20 1015 29.97 845 24.95 11.2 52.2 68 5.6 42
04:25 1015 29.97 845 24.95 11.2 52.1 67 5.4 41.6
04:30 1015 29.97 845 24.95 11.1 52 67 5.2 41.4
04:35 1015 29.97 845 24.95 11.1 51.9 67 5.2 41.3
04:40 1015 29.97 844 24.92 11 51.9 67 5.2 41.3
04:45 1015 29.97 844 24.92 11 51.9 67 5.2 41.4
04:50 1015 29.97 844 24.92 11 51.8 67 5.2 41.4
04:55 1015 29.97 844 24.92 11 51.8 67 5.2 41.4
05:00 1015 29.97 844 24.92 11 51.8 68 5.3 41.6
05:05 1015 29.97 844 24.92 11 51.8 67 5.2 41.3
05:10 1015 29.97 844 24.92 11 51.8 67 5.2 41.4
05:15 1015 29.97 844 24.92 11 51.7 68 5.2 41.4
05:20 1015 29.97 844 24.92 10.9 51.7 68 5.3 41.5
05:25 1015 29.97 844 24.92 10.9 51.6 68 5.2 41.4
05:30 1015 29.97 845 24.95 10.9 51.7 67 5.2 41.3
05:35 1015 29.97 844 24.92 11 51.7 67 5.2 41.3
05:40 1015 29.97 844 24.92 11 51.7 67 5.1 41.3
05:45 1015 29.97 845 24.95 11 51.8 67 5.1 41.2
05:50 1015 29.97 845 24.95 10.9 51.6 67 5.1 41.2
05:55 1015 29.97 845 24.95 10.9 51.5 68 5.2 41.3
06:00 1016 30 845 24.95 10.8 51.4 68 5.2 41.4
06:05 1016 30 845 24.95 10.7 51.3 69 5.2 41.4
06:10 1016 30 845 24.95 10.6 51.2 71 5.5 42
06:15 1016 30 845 24.95 10.5 50.9 72 5.7 42.2
06:20 1016 30 845 24.95 10.4 50.7 72 5.6 42.1
06:25 1016 30 845 24.95 10.3 50.6 72 5.6 42
06:30 1016 30 845 24.95 10.3 50.6 71 5.2 41.4
06:35 1016 30 845 24.95 10.4 50.7 70 5.2 41.4
06:40 1015 29.97 845 24.95 10.4 50.8 70 5.2 41.3
06:45 1015 29.97 845 24.95 10.5 50.8 69 5.1 41.2
06:50 1015 29.97 845 24.95 10.4 50.8 70 5.2 41.4
06:55 1015 29.97 844 24.92 10.4 50.7 70 5.3 41.5
07:00 1015 29.97 845 24.95 10.4 50.7 70 5.2 41.4
07:05 1015 29.97 845 24.95 10.4 50.7 70 5.3 41.5
07:10 1015 29.97 845 24.95 10.4 50.8 70 5.3 41.5
07:15 1015 29.97 845 24.95 10.4 50.8 70 5.3 41.5
07:20 1015 29.97 845 24.95 10.4 50.8 70 5.3 41.6
07:25 1015 29.97 845 24.95 10.4 50.7 71 5.3 41.6
07:30 1016 30 845 24.95 10.3 50.6 71 5.3 41.6
07:35 1016 30 845 24.95 10.3 50.5 72 5.4 41.7
07:40 1016 30 845 24.95 10.2 50.4 72 5.4 41.6
07:45 1016 30 845 24.95 10.2 50.3 72 5.4 41.6
07:50 1016 30 845 24.95 10.1 50.2 72 5.3 41.5
07:55 1016 30 845 24.95 10.1 50.2 72 5.3 41.6
08:00 1016 30 845 24.95 10.1 50.2 72 5.3 41.6
08:05 1016 30 845 24.95 10 50.1 72 5.3 41.5
08:10 1016 30 845 24.95 10 50 73 5.4 41.6
08:15 1016 30 845 24.95 10 49.9 73 5.3 41.6
08:20 1016 30 845 24.95 9.9 49.8 73 5.4 41.7
08:25 1016 30 845 24.95 9.8 49.6 74 5.3 41.6
08:30 1016 30 845 24.95 9.8 49.7 74 5.4 41.7
08:35 1015 29.97 845 24.95 9.8 49.7 73 5.3 41.5
08:40 1015 29.97 845 24.95 9.9 49.8 74 5.4 41.8
08:45 1015 29.97 845 24.95 9.9 49.9 74 5.5 42
08:50 1015 29.97 845 24.95 9.9 49.9 74 5.6 42
08:55 1015 29.97 844 24.92 10 49.9 74 5.5 41.9
09:00 1015 29.97 844 24.92 10 49.9 74 5.6 42.2
09:05 1015 29.97 845 24.95 9.9 49.9 74 5.6 42
09:10 1015 29.97 845 24.95 9.9 49.9 75 5.7 42.2
09:15 1015 29.97 845 24.95 10 49.9 75 5.7 42.3
09:20 1015 29.97 845 24.95 10 50 75 5.8 42.4
09:25 1015 29.97 845 24.95 10 50.1 75 5.9 42.6
09:30 1016 30 845 24.95 10 50.1 75 5.8 42.5
09:35 1016 30 845 24.95 10 50 76 5.9 42.6
09:40 1016 30 845 24.95 9.9 49.9 76 5.8 42.5
09:45 1016 30 845 24.95 9.9 49.9 76 5.9 42.6
09:50 1016 30 845 24.95 9.9 49.9 76 5.8 42.5
09:55 1016 30 845 24.95 10.1 50.1 75 5.9 42.6
10:00 1016 30 845 24.95 10.1 50.2 75 5.9 42.7
10:05 1016 30 846 24.98 10.1 50.2 75 6 42.8
10:10 1016 30 845 24.95 10.1 50.2 76 6 42.8
10:15 1016 30 846 24.98 10.2 50.3 76 6.2 43.1
10:20 1016 30 846 24.98 10.1 50.2 77 6.3 43.3
10:25 1016 30 846 24.98 9.9 49.9 77 6 42.9
10:30 1016 30 846 24.98 10 49.9 77 6.1 42.9
10:35 1016 30 846 24.98 10.1 50.1 77 6.3 43.3
10:40 1016 30 846 24.98 9.8 49.7 78 6.3 43.3
10:45 1016 30 846 24.98 9.7 49.4 78 6 42.8
10:50 1016 30 846 24.98 9.8 49.7 78 6.2 43.2
10:55 1016 30 846 24.98 9.9 49.8 77 6 42.8
11:00 1016 30 846 24.98 9.9 49.8 76 5.9 42.7
11:05 1016 30 845 24.95 9.9 49.8 76 6 42.7
11:10 1016 30 846 24.98 10 49.9 76 5.9 42.6
11:15 1016 30 846 24.98 9.9 49.8 76 5.8 42.5
11:20 1016 30 846 24.98 9.8 49.7 76 5.9 42.5
11:25 1016 30 846 24.98 9.9 49.7 76 5.9 42.6
11:30 1016 30 846 24.98 9.8 49.6 76 5.8 42.5
11:35 1016 30 845 24.95 9.8 49.7 76 5.7 42.3
11:40 1016 30 845 24.95 9.9 49.7 75 5.7 42.3
11:45 1016 30 845 24.95 9.9 49.9 75 5.7 42.3
11:50 1016 30 846 24.98 10 49.9 75 5.8 42.4
11:55 1016 30 846 24.98 10 49.9 75 5.8 42.4
12:00 1016 30 846 24.98 10 50 75 5.7 42.3
12:05 1016 30 846 24.98 10.1 50.1 75 5.8 42.4
12:10 1016 30 846 24.98 10.1 50.1 74 5.7 42.2
12:15 1016 30 846 24.98 10.1 50.1 74 5.7 42.3
12:20 1016 30 846 24.98 10 49.9 79 6.4 43.6
12:25 1016 30 846 24.98 9.5 49.1 80 6.3 43.4
12:30 1016 30 846 24.98 9.5 49.2 80 6.3 43.4
12:35 1016 30 846 24.98 9.4 48.9 81 6.4 43.5
12:40 1016 30 846 24.98 9.4 49 82 6.5 43.6
12:45 1016 30 845 24.95 9.3 48.8 81 6.2 43.2
12:50 1016 30 846 24.98 9.2 48.5 79 5.8 42.4
12:55 1016 30 845 24.95 9.1 48.4 79 5.7 42.3
13:00 1016 30 845 24.95 9.2 48.5 80 5.9 42.6
13:05 1016 30 845 24.95 9.3 48.7 79 5.8 42.5
13:10 1016 30 845 24.95 9.3 48.7 79 5.7 42.3
13:15 1016 30 845 24.95 9.3 48.8 78 5.7 42.3
13:20 1016 30 845 24.95 9.4 48.9 78 5.8 42.4
13:25 1016 30 845 24.95 9.5 49.1 77 5.8 42.4
13:30 1016 30 845 24.95 9.6 49.3 77 5.7 42.3
13:35 1016 30 845 24.95 9.6 49.3 77 5.8 42.4
13:40 1016 30 845 24.95 9.8 49.6 75 5.7 42.2
13:45 1016 30 845 24.95 9.8 49.6 75 5.6 42
13:50 1016 30 845 24.95 9.9 49.7 74 5.4 41.8
13:55 1016 30 845 24.95 10 49.9 74 5.6 42
14:00 1016 30 845 24.95 9.9 49.8 74 5.5 41.9
14:05 1016 30 845 24.95 9.8 49.6 75 5.5 41.9
14:10 1016 30 845 24.95 9.7 49.4 77 5.9 42.6
14:15 1016 30 845 24.95 9.1 48.4 78 5.5 41.9
14:20 1016 30 845 24.95 8.9 48 78 5.2 41.4
14:25 1016 30 845 24.95 8.9 47.9 79 5.4 41.6
14:30 1016 30 845 24.95 8.7 47.6 80 5.4 41.8
14:35 1016 30 845 24.95 8.5 47.4 82 5.6 42
14:40 1016 30 845 24.95 8.6 47.5 83 5.9 42.6
14:45 1016 30 845 24.95 8.6 47.5 84 6 42.9
14:50 1016 30 845 24.95 8.6 47.5 82 5.7 42.3
14:55 1016 30 845 24.95 8.3 47 83 5.5 42
15:00 1016 30 846 24.98 8.1 46.6 83 5.5 41.9
15:05 1016 30 846 24.98 8.1 46.5 83 5.4 41.7
15:10 1016 30 846 24.98 8 46.4 85 5.6 42
15:15 1016 30 846 24.98 8 46.4 85 5.6 42.1
15:20 1016 30 845 24.95 7.9 46.3 85 5.5 42
15:25 1016 30 845 24.95 7.9 46.1 85 5.4 41.8
15:30 1016 30 845 24.95 7.6 45.7 86 5.4 41.7
15:35 1016 30 845 24.95 7.8 46 85 5.4 41.7
15:40 1016 30 845 24.95 7.9 46.2 84 5.3 41.5
15:45 1016 30 846 24.98 7.8 46 85 5.4 41.7
15:50 1017 30.03 846 24.98 7.8 46 86 5.6 42
15:55 1017 30.03 846 24.98 7.6 45.7 87 5.6 42.1
16:00 1017 30.03 846 24.98 7.5 45.4 88 5.6 42.1
16:05 1017 30.03 846 24.98 7.4 45.2 89 5.7 42.2
16:10 1017 30.03 846 24.98 7.2 45 90 5.7 42.3
16:15 1017 30.03 846 24.98 7.2 44.9 90 5.7 42.2
16:20 1017 30.03 846 24.98 7 44.6 90 5.5 42
16:25 1017 30.03 846 24.98 7 44.6 90 5.5 41.9
16:30 1017 30.03 846 24.98 6.9 44.4 90 5.5 41.8
16:35 1016 30 846 24.98 6.8 44.3 91 5.4 41.8
16:40 1016 30 845 24.95 6.9 44.3 91 5.5 41.9
16:45 1016 30 845 24.95 6.9 44.3 91 5.6 42
16:50 1016 30 845 24.95 6.9 44.5 92 5.7 42.3
16:55 1016 30 845 24.95 7.2 44.9 92 6 42.7
17:00 1016 30 845 24.95 7.3 45.2 92 6.1 43
17:05 1016 30 846 24.98 7.3 45.1 92 6 42.8
17:10 1016 30 846 24.98 7 44.7 91 5.7 42.3
17:15 1017 30.03 846 24.98 6.8 44.2 91 5.5 41.8
17:20 1017 30.03 846 24.98 6.7 44 91 5.4 41.7
17:25 1017 30.03 846 24.98 6.6 43.9 91 5.2 41.4
17:30 1017 30.03 846 24.98 6.4 43.6 91 5.1 41.3
17:35 1017 30.03 846 24.98 6.5 43.7 91 5.2 41.3
17:40 1017 30.03 846 24.98 6.5 43.7 91 5.2 41.3
17:45 1017 30.03 846 24.98 6.6 43.8 91 5.2 41.4
17:50 1017 30.03 846 24.98 6.6 43.9 91 5.3 41.5
17:55 1017 30.03 846 24.98 6.6 43.9 91 5.2 41.3
18:00 1017 30.03 846 24.98 6.5 43.7 90 5 41
18:05 1017 30.03 846 24.98 6.5 43.6 91 5.1 41.1
18:10 1017 30.03 846 24.98 6.4 43.6 91 5 41
18:15 1017 30.03 846 24.98 6.3 43.3 90 4.8 40.7
18:20 1017 30.03 846 24.98 6.2 43.1 91 4.7 40.5
18:25 1017 30.03 846 24.98 6.1 43 91 4.7 40.4
18:30 1017 30.03 846 24.98 6.1 42.9 91 4.7 40.4
18:35 1017 30.03 846 24.98 6 42.8 91 4.6 40.3
18:40 1017 30.03 846 24.98 5.9 42.7 91 4.6 40.2
18:45 1017 30.03 846 24.98 6 42.8 91 4.6 40.4
18:50 1017 30.03 846 24.98 6 42.8 91 4.7 40.4
18:55 1017 30.03 846 24.98 5.9 42.6 91 4.6 40.2
19:00 1017 30.03 846 24.98 5.8 42.5 91 4.5 40.1
19:05 1017 30.03 846 24.98 5.8 42.5 91 4.4 40
19:10 1017 30.03 846 24.98 5.7 42.3 91 4.4 39.9
19:15 1017 30.03 846 24.98 5.6 42.2 91 4.3 39.8
19:20 1017 30.03 846 24.98 5.6 42.1 91 4.3 39.7
19:25 1017 30.03 846 24.98 5.5 41.8 91 4.2 39.5
19:30 1017 30.03 846 24.98 5.5 41.8 91 4.1 39.4
19:35 1017 30.03 846 24.98 5.4 41.8 91 4 39.3
19:40 1017 30.03 846 24.98 5.5 41.8 91 4.1 39.3
19:45 1017 30.03 846 24.98 5.5 41.9 91 4.1 39.4
19:50 1017 30.03 846 24.98 5.6 42 91 4.2 39.5
19:55 1017 30.03 846 24.98 5.5 41.9 91 4.1 39.3
20:00 1017 30.03 846 24.98 5.4 41.7 91 4.1 39.3
20:05 1017 30.03 846 24.98 5.4 41.8 91 4.1 39.3
20:10 1017 30.03 846 24.98 5.4 41.7 91 4 39.2
20:15 1017 30.03 846 24.98 5.4 41.7 91 4.1 39.3
20:20 1017 30.03 846 24.98 5.5 41.9 91 4.2 39.5
20:25 1017 30.03 846 24.98 5.6 42.2 91 4.2 39.6
20:30 1017 30.03 846 24.98 5.7 42.3 90 4.3 39.7
20:35 1017 30.03 846 24.98 5.7 42.3 90 4.3 39.7
20:40 1017 30.03 846 24.98 5.8 42.4 90 4.3 39.8
20:45 1017 30.03 846 24.98 5.7 42.3 90 4.2 39.6
20:50 1017 30.03 846 24.98 5.5 41.9 91 4.1 39.3
20:55 1017 30.03 846 24.98 5.5 41.8 91 4.1 39.3
21:00 1017 30.03 846 24.98 5.5 41.9 91 4.1 39.3
21:05 1017 30.03 846 24.98 5.5 41.9 91 4.1 39.4
21:10 1017 30.03 846 24.98 5.5 42 91 4.1 39.4
21:15 1017 30.03 846 24.98 5.5 41.9 91 4.1 39.4
21:20 1017 30.03 846 24.98 5.6 42.1 90 4.2 39.5
21:25 1017 30.03 846 24.98 5.6 42 90 4.1 39.3
21:30 1017 30.03 846 24.98 5.5 42 90 4 39.2
21:35 1017 30.03 846 24.98 5.5 41.9 90 4 39.2
21:40 1017 30.03 846 24.98 5.6 42.1 89 4 39.3
21:45 1017 30.03 846 24.98 5.6 42.1 89 4 39.1
21:50 1017 30.03 846 24.98 5.5 41.9 89 3.8 38.8
21:55 1017 30.03 846 24.98 5.4 41.6 89 3.7 38.6
22:00 1017 30.03 846 24.98 5.4 41.7 89 3.8 38.8
22:05 1017 30.03 846 24.98 5.5 41.8 89 3.8 38.9
22:10 1017 30.03 846 24.98 5.5 41.8 90 3.9 39
22:15 1017 30.03 846 24.98 5.5 41.8 90 3.9 39
22:20 1017 30.03 846 24.98 5.4 41.8 90 4 39.2
22:25 1017 30.03 846 24.98 5.4 41.8 90 4 39.1
22:30 1017 30.03 846 24.98 5.4 41.8 90 4 39.2
22:35 1017 30.03 846 24.98 5.4 41.7 91 4 39.2
22:40 1017 30.03 846 24.98 5.3 41.6 90 3.9 38.9
22:45 1017 30.03 846 24.98 5.3 41.5 91 3.9 39
22:50 1017 30.03 846 24.98 5.2 41.3 91 3.8 38.8
22:55 1017 30.03 846 24.98 5.1 41.2 91 3.8 38.8
23:00 1017 30.03 846 24.98 5.1 41.2 91 3.7 38.7
23:05 1017 30.03 846 24.98 5.2 41.3 91 3.8 38.8
23:10 1017 30.03 846 24.98 5.2 41.4 91 3.8 38.8
23:15 1017 30.03 846 24.98 5.2 41.3 90 3.7 38.7
23:20 1017 30.03 846 24.98 5.2 41.3 91 3.8 38.8
23:25 1017 30.03 846 24.98 5.2 41.3 90 3.7 38.7
23:30 1017 30.03 846 24.98 5.1 41.2 90 3.7 38.6
23:35 1017 30.03 846 24.98 5 41 90 3.6 38.4
23:40 1017 30.03 846 24.98 5 41 90 3.6 38.4
23:45 1017 30.03 846 24.98 5 41 90 3.6 38.4
23:50 1017 30.03 846 24.98 4.9 40.9 90 3.4 38.2
23:55 1017 30.03 846 24.98 4.9 40.8 90 3.4 38
24:00 1017 30.03 846 24.98 5 40.9 90 3.4 38.1